Time;durP1;ratioP1;P1;durP2;ratioP2;P2;SDS_P1;SDS_P2;PMS_P1;PMS_P2;Temp;Humidity;BMP_temperature;BMP_pressure;BME280_temperature;BME280_humidity;BME280_pressure;Samples;Min_cycle;Max_cycle;Signal;HPM_P1;HPM_P2
2022/01/09 00:01:54;;;;;;;0.30;0.10;;;-3.30;99.90;;;;;;20883659;28;20036;-51
2022/01/09 00:11:56;;;;;;;0.22;0.05;;;-3.40;99.80;;;;;;20883024;28;20415;-51
2022/01/09 00:21:58;;;;;;;0.57;0.13;;;-3.40;99.60;;;;;;20894502;28;20053;-54
2022/01/09 00:32:02;;;;;;;0.90;0.20;;;-3.40;99.90;;;;;;20916310;28;20041;-50
2022/01/09 00:42:05;;;;;;;0.50;0.20;;;-3.70;99.90;;;;;;20899141;28;20063;-52
2022/01/09 00:52:08;;;;;;;0.73;0.30;;;-3.90;99.80;;;;;;20898416;28;20041;-52
2022/01/09 01:02:10;;;;;;;0.40;0.20;;;-4.00;99.90;;;;;;20898297;28;20377;-56
2022/01/09 01:12:13;;;;;;;0.68;0.20;;;-4.20;99.90;;;;;;20896620;28;20086;-50
2022/01/09 01:22:16;;;;;;;0.55;0.15;;;-4.20;99.90;;;;;;20895299;28;20566;-52
2022/01/09 01:32:19;;;;;;;0.20;0.10;;;-4.20;99.80;;;;;;20951246;28;20037;-54
2022/01/09 01:42:22;;;;;;;0.32;0.10;;;-4.10;99.90;;;;;;20977453;28;20530;-53
2022/01/09 01:52:35;;;;;;;0.63;0.13;;;-4.20;99.50;;;;;;20978114;28;20040;-51
2022/01/09 02:02:37;;;;;;;0.17;0.03;;;-4.30;97.60;;;;;;20990513;28;20559;-55
2022/01/09 02:12:40;;;;;;;0.08;0.00;;;-4.50;97.90;;;;;;20892320;28;20037;-54
2022/01/09 02:22:43;;;;;;;0.28;0.08;;;-4.20;97.10;;;;;;20891114;28;20045;-50
2022/01/09 02:32:46;;;;;;;0.25;0.10;;;-3.90;98.60;;;;;;20890779;28;20040;-54
2022/01/09 02:42:51;;;;;;;0.90;0.20;;;-3.70;99.40;;;;;;20889753;28;20136;-52
2022/01/09 02:52:57;;;;;;;0.38;0.10;;;-3.50;99.70;;;;;;20889111;28;20040;-55
2022/01/09 03:03:01;;;;;;;0.52;0.10;;;-3.40;99.80;;;;;;20889180;28;20040;-52
2022/01/09 03:13:06;;;;;;;1.00;0.20;;;-3.50;99.90;;;;;;20887645;28;20061;-52
2022/01/09 03:23:09;;;;;;;0.70;0.10;;;-3.70;98.80;;;;;;20887284;28;20049;-51
2022/01/09 03:33:12;;;;;;;0.73;0.20;;;-4.10;99.90;;;;;;20886008;28;20037;-52
2022/01/09 03:43:14;;;;;;;0.43;0.10;;;-4.20;99.90;;;;;;20885487;28;20036;-52
2022/01/09 03:53:17;;;;;;;0.32;0.10;;;-4.20;99.90;;;;;;20884220;28;20025;-51
2022/01/09 04:03:19;;;;;;;0.40;0.15;;;-4.50;99.80;;;;;;20883955;28;20029;-50
2022/01/09 04:13:22;;;;;;;0.10;0.00;;;-4.40;99.90;;;;;;20883680;28;20083;-52
2022/01/09 04:23:24;;;;;;;0.30;0.10;;;-4.20;99.90;;;;;;20883291;28;20052;-54
2022/01/09 04:33:28;;;;;;;0.40;0.10;;;-4.00;99.90;;;;;;20882760;28;20404;-53
2022/01/09 04:43:30;;;;;;;0.08;0.00;;;-3.90;99.90;;;;;;20882523;28;20530;-52
2022/01/09 04:53:32;;;;;;;0.57;0.10;;;-3.70;99.70;;;;;;20882096;28;20040;-51
2022/01/09 05:03:35;;;;;;;0.10;0.00;;;-3.50;99.40;;;;;;20882300;28;20036;-53
2022/01/09 05:13:38;;;;;;;1.05;0.10;;;-3.40;99.30;;;;;;20896720;28;20098;-55
2022/01/09 05:23:40;;;;;;;0.08;0.00;;;-3.40;99.90;;;;;;20895958;28;20099;-52
2022/01/09 05:33:43;;;;;;;0.40;0.10;;;-3.40;98.10;;;;;;20960405;28;20029;-51
2022/01/09 05:43:46;;;;;;;0.28;0.10;;;-3.20;98.90;;;;;;20961053;28;20514;-55
2022/01/09 05:53:48;;;;;;;0.32;0.08;;;-3.20;98.00;;;;;;20977453;28;20040;-52
2022/01/09 06:03:51;;;;;;;0.15;0.10;;;-3.40;99.30;;;;;;20963835;28;20028;-55
2022/01/09 06:13:53;;;;;;;0.30;0.10;;;-3.50;99.70;;;;;;20892426;28;20550;-54
2022/01/09 06:23:56;;;;;;;0.17;0.00;;;-3.50;99.90;;;;;;20890850;28;20095;-53
2022/01/09 06:33:59;;;;;;;0.63;0.10;;;-3.60;99.60;;;;;;20874435;28;20507;-50
2022/01/09 06:44:01;;;;;;;0.55;0.10;;;-3.40;99.50;;;;;;20889762;28;20102;-52
2022/01/09 06:54:04;;;;;;;0.10;0.10;;;-3.30;99.90;;;;;;20888857;28;20028;-52
2022/01/09 07:04:07;;;;;;;0.38;0.10;;;-3.40;99.90;;;;;;20888296;28;20473;-55
2022/01/09 07:14:09;;;;;;;0.43;0.10;;;-3.40;99.90;;;;;;20887318;28;20082;-51
2022/01/09 07:24:11;;;;;;;3.00;2.38;;;-3.50;99.90;;;;;;20886532;28;20036;-50
2022/01/09 07:34:15;;;;;;;0.30;0.00;;;-3.50;99.90;;;;;;20885530;28;20041;-52
2022/01/09 07:44:17;;;;;;;0.00;0.00;;;-3.40;99.90;;;;;;20885201;28;20508;-54
2022/01/09 07:54:20;;;;;;;2.90;0.03;;;-3.40;99.50;;;;;;20885766;28;20037;-52
2022/01/09 08:04:23;;;;;;;1.98;0.63;;;-3.20;98.90;;;;;;20646914;28;20580;-52
2022/01/09 08:14:26;;;;;;;1.83;0.50;;;-2.90;99.60;;;;;;20646588;28;20109;-52
2022/01/09 08:24:29;;;;;;;0.68;0.25;;;-2.60;98.50;;;;;;20657248;28;20045;-51
2022/01/09 08:34:33;;;;;;;0.70;0.30;;;-2.10;98.10;;;;;;20726930;28;20045;-51
2022/01/09 08:44:37;;;;;;;0.38;0.20;;;-2.00;96.60;;;;;;20812773;28;20045;-51
2022/01/09 08:54:39;;;;;;;0.75;0.25;;;-1.50;96.90;;;;;;20931145;28;20480;-54
2022/01/09 09:04:41;;;;;;;0.50;0.20;;;-1.10;93.60;;;;;;20914260;28;20045;-51
2022/01/09 09:14:46;;;;;;;3.30;0.43;;;-1.00;95.40;;;;;;20914117;28;20071;-53
2022/01/09 09:24:49;;;;;;;0.55;0.28;;;-0.90;92.70;;;;;;20895753;28;20503;-51
2022/01/09 09:34:53;;;;;;;0.32;0.10;;;-1.10;92.80;;;;;;20987628;28;20040;-52
2022/01/09 09:45:01;;;;;;;0.65;0.22;;;-1.20;92.80;;;;;;20977821;28;20497;-51
2022/01/09 09:55:05;;;;;;;0.43;0.20;;;-0.70;90.30;;;;;;20992452;28;20032;-52
2022/01/09 10:05:08;;;;;;;1.20;0.40;;;-0.20;91.40;;;;;;20952482;28;20370;-57
2022/01/09 10:15:15;;;;;;;0.80;0.30;;;0.20;92.80;;;;;;20892099;28;20037;-52
2022/01/09 10:25:36;;;;;;;0.88;0.40;;;0.70;91.70;;;;;;20891056;28;20091;-54
2022/01/09 10:35:42;;;;;;;0.65;0.40;;;0.80;91.30;;;;;;20890880;28;20508;-55
2022/01/09 10:45:58;;;;;;;1.10;0.35;;;0.90;91.40;;;;;;20889765;28;20091;-52
2022/01/09 10:56:13;;;;;;;0.75;0.35;;;1.30;91.50;;;;;;20889771;28;20086;-52
2022/01/09 11:06:16;;;;;;;0.98;0.30;;;1.60;91.70;;;;;;20886527;28;20444;-52
2022/01/09 11:27:05;;;;;;;1.30;0.70;;;2.40;88.90;;;;;;20903161;28;20103;-56
2022/01/09 11:37:27;;;;;;;1.27;0.68;;;2.10;87.90;;;;;;20886587;28;20044;-52
2022/01/09 11:47:46;;;;;;;;;;;2.00;88.00;;;;;;20884869;28;20044;-54
2022/01/09 11:57:48;;;;;;;2.20;0.80;;;2.00;90.10;;;;;;20884481;28;19912;-51
2022/01/09 12:07:51;;;;;;;1.27;0.70;;;2.30;87.30;;;;;;20883532;28;20098;-51
2022/01/09 12:17:54;;;;;;;1.60;0.52;;;2.30;89.60;;;;;;20868035;28;20032;-55
2022/01/09 12:28:03;;;;;;;2.13;0.90;;;2.50;90.70;;;;;;20882885;28;20045;-51
2022/01/09 12:38:06;;;;;;;1.13;0.57;;;2.30;90.60;;;;;;20865923;28;20045;-54
2022/01/09 12:48:20;;;;;;;1.10;0.50;;;2.00;90.40;;;;;;20880811;28;20037;-54
2022/01/09 12:58:32;;;;;;;0.55;0.20;;;1.80;89.10;;;;;;20881165;28;20040;-55
2022/01/09 13:08:38;;;;;;;0.88;0.20;;;1.40;83.90;;;;;;20881259;28;20041;-51
2022/01/09 13:18:49;;;;;;;0.40;0.20;;;0.90;87.60;;;;;;20889048;28;20037;-52
2022/01/09 13:28:53;;;;;;;0.80;0.20;;;1.00;86.60;;;;;;20893827;28;20091;-56
2022/01/09 13:38:59;;;;;;;0.55;0.30;;;1.20;82.40;;;;;;20879467;28;20129;-52
2022/01/09 13:49:11;;;;;;;1.33;0.20;;;1.10;81.00;;;;;;20877261;28;20489;-54
2022/01/09 13:59:14;;;;;;;0.30;0.10;;;0.90;80.60;;;;;;20893457;28;20049;-56
2022/01/09 14:09:25;;;;;;;0.13;0.03;;;0.80;83.10;;;;;;20892788;28;20508;-53
2022/01/09 14:19:47;;;;;;;0.17;0.10;;;0.90;85.70;;;;;;20892118;28;20537;-54
2022/01/09 14:29:49;;;;;;;;;;;1.00;88.80;;;;;;20897501;28;20186;-53
2022/01/09 14:39:53;;;;;;;0.17;0.00;;;0.90;90.00;;;;;;20906855;28;20354;-55
2022/01/09 14:49:55;;;;;;;0.13;0.10;;;1.00;89.10;;;;;;20906267;28;20044;-56
2022/01/09 14:59:58;;;;;;;0.32;0.08;;;0.80;88.50;;;;;;20889343;28;20041;-57
2022/01/09 15:10:01;;;;;;;0.73;0.10;;;0.70;89.60;;;;;;20904715;28;20059;-56
2022/01/09 15:20:05;;;;;;;0.43;0.13;;;0.60;90.20;;;;;;20904188;28;20094;-54
2022/01/09 15:30:09;;;;;;;1.27;0.10;;;0.40;90.00;;;;;;20903359;28;20106;-52
2022/01/09 15:40:14;;;;;;;0.30;0.15;;;0.30;87.50;;;;;;20886118;28;20115;-52
2022/01/09 15:50:18;;;;;;;0.43;0.10;;;0.10;85.60;;;;;;20901178;28;20037;-53
2022/01/09 16:00:21;;;;;;;0.52;0.17;;;0.20;86.60;;;;;;20901239;28;20041;-54
2022/01/09 16:10:24;;;;;;;0.75;0.10;;;0.00;86.50;;;;;;20900318;28;20037;-54
2022/01/09 16:20:27;;;;;;;0.50;0.20;;;-0.10;89.20;;;;;;20900004;28;20087;-54
2022/01/09 16:30:33;;;;;;;0.13;0.00;;;-0.20;90.00;;;;;;20917607;28;20057;-51
2022/01/09 16:40:37;;;;;;;0.50;0.17;;;-0.40;88.10;;;;;;20899375;28;20045;-52
2022/01/09 16:50:45;;;;;;;0.20;0.10;;;-0.40;87.20;;;;;;20916071;28;20037;-53
2022/01/09 17:00:48;;;;;;;0.32;0.20;;;-0.30;86.80;;;;;;20902994;28;20512;-54
2022/01/09 17:10:51;;;;;;;0.68;0.30;;;-0.30;86.40;;;;;;20914299;28;20041;-53
2022/01/09 17:20:55;;;;;;;0.73;0.10;;;-0.50;88.00;;;;;;20913344;28;20412;-52
2022/01/09 17:30:59;;;;;;;0.95;0.20;;;-0.70;90.60;;;;;;20895563;28;20131;-55
2022/01/09 17:41:02;;;;;;;2.95;0.13;;;-0.50;87.10;;;;;;20911691;28;20045;-53
2022/01/09 17:51:06;;;;;;;0.15;0.00;;;-0.50;90.40;;;;;;20911306;28;20090;-53
2022/01/09 18:01:09;;;;;;;0.60;0.03;;;-0.50;90.20;;;;;;20893929;28;20378;-55
2022/01/09 18:11:14;;;;;;;0.03;0.00;;;-0.40;89.30;;;;;;20908737;28;20063;-54
2022/01/09 18:21:18;;;;;;;1.95;0.20;;;-0.30;88.40;;;;;;20908719;28;20087;-53
2022/01/09 18:31:20;;;;;;;0.00;0.00;;;-0.10;87.00;;;;;;20891182;28;20106;-52
2022/01/09 18:41:23;;;;;;;1.52;0.05;;;-0.20;85.50;;;;;;20891107;28;20036;-53
2022/01/09 18:51:28;;;;;;;0.30;0.10;;;0.00;84.30;;;;;;20889402;28;20095;-52
2022/01/09 19:01:32;;;;;;;0.60;0.10;;;0.10;83.40;;;;;;20889041;28;20037;-52
2022/01/09 19:11:35;;;;;;;0.00;0.00;;;0.10;83.40;;;;;;20889159;28;20067;-52
2022/01/09 19:21:37;;;;;;;0.17;0.00;;;0.00;82.10;;;;;;20886329;28;20447;-52
2022/01/09 19:31:40;;;;;;;0.10;0.00;;;0.00;81.90;;;;;;20902772;28;20029;-52
2022/01/09 19:41:43;;;;;;;0.47;0.10;;;0.00;80.80;;;;;;20885992;28;20501;-53
2022/01/09 19:51:47;;;;;;;1.33;0.10;;;-0.10;82.30;;;;;;20885435;28;20190;-57
2022/01/09 20:01:51;;;;;;;0.90;0.10;;;-0.30;83.10;;;;;;20884053;28;20033;-53
2022/01/09 20:11:55;;;;;;;0.00;0.00;;;-0.40;85.20;;;;;;20883490;28;20037;-54
2022/01/09 20:21:58;;;;;;;0.43;0.10;;;-0.50;86.40;;;;;;20884412;28;20045;-52
2022/01/09 20:32:03;;;;;;;0.20;0.10;;;-0.40;87.60;;;;;;20884171;28;20485;-54
2022/01/09 20:42:06;;;;;;;0.03;0.00;;;-0.60;85.30;;;;;;20897847;28;20377;-55
2022/01/09 20:52:11;;;;;;;0.88;0.10;;;-0.60;87.60;;;;;;20898949;28;20094;-53
2022/01/09 21:02:16;;;;;;;0.30;0.00;;;-0.60;86.30;;;;;;20898064;28;20041;-54
2022/01/09 21:12:19;;;;;;;0.80;0.20;;;-0.70;87.60;;;;;;20897722;28;20033;-51
2022/01/09 21:22:23;;;;;;;1.00;0.30;;;-1.30;92.10;;;;;;20896517;28;20118;-55
2022/01/09 21:32:25;;;;;;;0.90;0.30;;;-1.60;92.00;;;;;;20912287;28;20036;-52
2022/01/09 21:42:28;;;;;;;0.85;0.30;;;-1.90;93.20;;;;;;20895003;28;20048;-54
2022/01/09 21:52:33;;;;;;;0.98;0.40;;;-2.10;94.70;;;;;;20893517;28;20036;-55
2022/01/09 22:02:36;;;;;;;0.90;0.30;;;-2.50;96.20;;;;;;20893562;28;20037;-51
2022/01/09 22:12:39;;;;;;;0.85;0.20;;;-2.50;97.90;;;;;;20893151;28;20048;-52
2022/01/09 22:22:45;;;;;;;0.40;0.20;;;-2.50;98.10;;;;;;20875216;28;20048;-51
2022/01/09 22:32:51;;;;;;;0.45;0.20;;;-2.50;98.40;;;;;;20891334;28;20391;-55
2022/01/09 22:43:00;;;;;;;0.90;0.20;;;-2.70;98.80;;;;;;20890249;28;20037;-57
2022/01/09 22:53:03;;;;;;;0.43;0.10;;;-2.80;99.60;;;;;;20889689;28;20036;-52
2022/01/09 23:03:07;;;;;;;0.25;0.10;;;-2.90;99.10;;;;;;20889150;28;20484;-53
2022/01/09 23:13:09;;;;;;;0.43;0.00;;;-3.00;99.30;;;;;;20888573;28;20115;-51
2022/01/09 23:23:12;;;;;;;0.73;0.13;;;-3.20;99.60;;;;;;20887179;28;20037;-50
2022/01/09 23:33:15;;;;;;;0.10;0.00;;;-3.50;99.00;;;;;;20902989;28;20091;-50
2022/01/09 23:43:19;;;;;;;0.30;0.10;;;-3.60;98.90;;;;;;20885829;28;20045;-53
2022/01/09 23:53:23;;;;;;;0.43;0.10;;;-3.70;98.00;;;;;;20884879;28;20067;-52
